createdAt,value
2019-02-16T00:00:34.424Z,2.88
2019-02-16T00:03:03.409Z,2.84
2019-02-16T00:05:32.137Z,2.88
2019-02-16T00:08:00.866Z,2.90
2019-02-16T00:10:29.647Z,2.82
2019-02-16T00:13:04.377Z,2.82
2019-02-16T00:15:33.096Z,2.86
2019-02-16T00:18:01.973Z,2.77
2019-02-16T00:20:30.698Z,2.75
2019-02-16T00:22:59.425Z,2.75
2019-02-16T00:25:28.321Z,2.64
2019-02-16T00:27:57.042Z,2.71
2019-02-16T00:30:25.777Z,2.62
2019-02-16T00:32:55.822Z,2.71
2019-02-16T00:35:24.685Z,2.69
2019-02-16T00:37:53.417Z,2.82
2019-02-16T00:40:22.271Z,2.78
2019-02-16T00:42:50.992Z,2.78
2019-02-16T00:45:19.732Z,2.63
2019-02-16T00:47:48.593Z,2.61
2019-02-16T00:50:17.317Z,2.73
2019-02-16T00:52:46.060Z,2.64
2019-02-16T00:55:14.851Z,2.56
2019-02-16T00:57:43.578Z,2.65
2019-02-16T01:00:13.022Z,2.60
2019-02-16T01:02:45.243Z,2.59
2019-02-16T01:05:13.963Z,2.54
2019-02-16T01:07:42.688Z,2.61
2019-02-16T01:10:11.490Z,2.61
2019-02-16T01:12:40.218Z,2.69
2019-02-16T01:15:09.615Z,2.70
2019-02-16T01:17:38.381Z,2.71
2019-02-16T01:20:09.304Z,2.69
2019-02-16T01:22:38.026Z,2.68
2019-02-16T01:25:07.295Z,2.73
2019-02-16T01:27:36.027Z,2.71
2019-02-16T01:30:07.363Z,2.84
2019-02-16T01:32:36.229Z,2.87
2019-02-16T01:35:06.460Z,2.86
2019-02-16T01:37:35.182Z,2.74
2019-02-16T01:40:04.658Z,2.65
2019-02-16T01:42:33.386Z,2.78
2019-02-16T01:45:02.134Z,2.81
2019-02-16T01:47:30.995Z,2.81
2019-02-16T01:49:59.724Z,2.71
2019-02-16T01:52:28.449Z,2.65
2019-02-16T01:54:57.223Z,2.69
2019-02-16T01:57:25.948Z,2.74
2019-02-16T01:59:54.677Z,2.87
2019-02-16T02:02:23.605Z,2.82
2019-02-16T02:04:52.329Z,2.89
2019-02-16T02:07:21.057Z,2.79
2019-02-16T02:09:49.911Z,2.89
2019-02-16T02:12:18.632Z,2.89
2019-02-16T02:14:47.358Z,2.94
2019-02-16T02:17:16.151Z,3.00
2019-02-16T02:19:44.871Z,3.18
2019-02-16T02:22:13.593Z,3.36
2019-02-16T02:24:42.478Z,3.39
2019-02-16T02:27:11.202Z,3.22
2019-02-16T02:29:39.931Z,3.24
2019-02-16T02:32:08.805Z,3.23
2019-02-16T02:34:37.533Z,3.35
2019-02-16T02:37:06.260Z,3.68
2019-02-16T02:39:35.054Z,3.59
2019-02-16T02:42:03.785Z,3.42
2019-02-16T02:44:32.512Z,3.36
2019-02-16T02:47:01.387Z,3.30
2019-02-16T02:49:30.120Z,3.11
2019-02-16T02:51:58.857Z,3.05
2019-02-16T02:54:27.650Z,3.23
2019-02-16T02:56:56.400Z,3.20
2019-02-16T02:59:25.132Z,3.02
2019-02-16T03:01:54.027Z,3.11
2019-02-16T03:04:22.757Z,3.20
2019-02-16T03:06:51.479Z,3.26
2019-02-16T03:09:20.388Z,3.43
2019-02-16T03:11:49.109Z,3.21
2019-02-16T03:14:17.840Z,2.95
2019-02-16T03:16:46.636Z,2.97
2019-02-16T03:19:15.364Z,2.92
2019-02-16T03:21:44.096Z,3.06
2019-02-16T03:24:12.977Z,2.99
2019-02-16T03:26:47.734Z,3.11
2019-02-16T03:29:27.931Z,3.17
2019-02-16T03:32:23.534Z,2.93
2019-02-16T03:34:58.212Z,2.78
2019-02-16T03:37:46.536Z,2.72
2019-02-16T03:40:15.300Z,2.75
2019-02-16T03:42:44.027Z,2.71
2019-02-16T03:45:12.843Z,3.00
2019-02-16T03:47:41.645Z,2.82
2019-02-16T03:50:10.462Z,2.48
2019-02-16T03:52:39.193Z,2.45
2019-02-16T03:55:08.075Z,2.30
2019-02-16T03:57:36.798Z,2.17
2019-02-16T04:00:08.530Z,2.11
2019-02-16T04:02:37.387Z,2.04
2019-02-16T04:05:07.216Z,1.93
2019-02-16T04:07:35.941Z,1.77
2019-02-16T04:10:06.234Z,1.58
2019-02-16T04:12:34.962Z,1.56
2019-02-16T04:15:03.697Z,1.50
2019-02-16T04:17:32.598Z,1.35
2019-02-16T04:20:01.353Z,1.14
2019-02-16T04:22:30.047Z,0.91
2019-02-16T04:24:58.827Z,0.74
2019-02-16T04:27:27.554Z,0.59
2019-02-16T04:29:56.282Z,0.47
2019-02-16T04:32:25.089Z,0.32
2019-02-16T04:34:53.807Z,0.21
2019-02-16T04:37:24.101Z,0.13
2019-02-16T04:39:53.014Z,-0.01
2019-02-16T04:42:21.738Z,0.00
2019-02-16T04:44:50.458Z,0.10
2019-02-16T04:47:19.350Z,0.21
2019-02-16T04:49:48.078Z,0.28
2019-02-16T04:52:16.810Z,0.37
2019-02-16T04:54:45.611Z,0.33
2019-02-16T04:57:14.335Z,0.21
2019-02-16T04:59:43.059Z,0.09
2019-02-16T05:02:11.954Z,-0.04
2019-02-16T05:04:40.685Z,-0.23
2019-02-16T05:07:09.496Z,-0.35
2019-02-16T05:09:38.305Z,-0.51
2019-02-16T05:12:07.035Z,-0.42
2019-02-16T05:14:35.765Z,-0.35
2019-02-16T05:17:04.975Z,-0.63
2019-02-16T05:19:33.703Z,-0.57
2019-02-16T05:22:02.434Z,-0.58
2019-02-16T05:24:31.334Z,-0.70
2019-02-16T05:27:00.073Z,-0.80
2019-02-16T05:29:28.800Z,-0.75
2019-02-16T05:31:57.642Z,-0.84
2019-02-16T05:34:26.353Z,-0.86
2019-02-16T05:36:55.091Z,-0.75
2019-02-16T05:39:23.973Z,-0.70
2019-02-16T05:41:52.711Z,-0.29
2019-02-16T05:44:21.448Z,-0.46
2019-02-16T05:46:50.332Z,-0.54
2019-02-16T05:49:19.065Z,-0.52
2019-02-16T05:51:48.161Z,-0.35
2019-02-16T05:54:17.183Z,-0.14
2019-02-16T05:56:45.906Z,0.36
2019-02-16T05:59:14.637Z,0.60
2019-02-16T06:01:53.219Z,1.05
2019-02-16T06:04:13.966Z,1.09
2019-02-16T06:06:42.694Z,1.00
2019-02-16T06:09:11.517Z,0.97
2019-02-16T06:11:40.242Z,1.02
2019-02-16T06:14:08.974Z,1.12
2019-02-16T06:16:37.777Z,1.05
2019-02-16T06:19:06.507Z,1.21
2019-02-16T06:21:35.246Z,1.40
2019-02-16T06:24:04.144Z,1.36
2019-02-16T06:26:32.866Z,1.46
2019-02-16T06:29:01.593Z,1.51
2019-02-16T06:31:30.467Z,1.38
2019-02-16T06:33:59.195Z,1.37
2019-02-16T06:36:29.484Z,1.17
2019-02-16T06:38:58.310Z,1.26
2019-02-16T06:41:27.044Z,1.18
2019-02-16T06:43:55.770Z,1.32
2019-02-16T06:46:24.660Z,1.51
2019-02-16T06:48:53.390Z,1.78
2019-02-16T06:51:22.118Z,1.89
2019-02-16T06:53:50.990Z,1.80
2019-02-16T06:56:21.281Z,1.71
2019-02-16T06:58:50.007Z,1.89
2019-02-16T07:01:19.309Z,2.11
2019-02-16T07:03:48.031Z,2.39
2019-02-16T07:06:16.770Z,2.73
2019-02-16T07:08:45.540Z,2.89
2019-02-16T07:11:14.358Z,3.19
2019-02-16T07:13:43.089Z,3.39
2019-02-16T07:16:13.463Z,3.16
2019-02-16T07:18:49.735Z,3.36
2019-02-16T07:21:18.468Z,4.02
2019-02-16T07:23:47.281Z,4.49
2019-02-16T07:26:16.007Z,4.75
2019-02-16T07:28:44.728Z,5.02
2019-02-16T07:31:15.728Z,5.47
2019-02-16T07:33:43.960Z,5.76
2019-02-16T07:36:14.204Z,5.86
2019-02-16T07:38:42.949Z,5.91
2019-02-16T07:41:11.677Z,6.03
2019-02-16T07:43:51.091Z,5.90
2019-02-16T07:46:36.294Z,5.77
2019-02-16T07:49:18.888Z,5.77
2019-02-16T07:52:04.424Z,5.58
2019-02-16T07:54:47.320Z,5.59
2019-02-16T07:57:20.762Z,5.87
2019-02-16T07:59:51.339Z,6.36
2019-02-16T08:02:21.643Z,7.02
2019-02-16T08:04:51.950Z,6.94
2019-02-16T08:07:28.183Z,6.79
2019-02-16T08:09:58.480Z,6.44
2019-02-16T08:12:44.247Z,6.63
2019-02-16T08:15:31.188Z,6.94
2019-02-16T08:18:10.867Z,7.04
2019-02-16T08:20:41.170Z,6.85
2019-02-16T08:23:11.490Z,6.97
2019-02-16T08:25:53.954Z,7.17
2019-02-16T08:28:27.211Z,7.53
2019-02-16T08:31:00.236Z,7.35
2019-02-16T08:33:30.539Z,7.39
2019-02-16T08:36:00.836Z,7.22
2019-02-16T08:38:34.260Z,7.29
2019-02-16T08:41:07.380Z,7.24
2019-02-16T08:43:40.743Z,7.29
2019-02-16T08:46:20.253Z,7.58
2019-02-16T08:48:53.738Z,7.42
2019-02-16T08:51:36.096Z,7.34
2019-02-16T08:54:22.944Z,7.10
2019-02-16T08:56:53.242Z,7.66
2019-02-16T08:59:23.545Z,7.81
2019-02-16T09:02:02.774Z,7.75
2019-02-16T09:04:48.118Z,7.53
2019-02-16T09:07:21.463Z,7.67
2019-02-16T09:09:54.494Z,7.89
2019-02-16T09:12:24.800Z,8.38
2019-02-16T09:15:04.105Z,8.37
2019-02-16T09:17:34.401Z,8.53
2019-02-16T09:20:21.690Z,8.69
2019-02-16T09:22:58.034Z,8.36
2019-02-16T09:25:37.649Z,8.93
2019-02-16T09:28:10.846Z,8.75
2019-02-16T09:30:41.265Z,9.23
2019-02-16T09:33:17.436Z,8.89
2019-02-16T09:35:56.566Z,9.28
2019-02-16T09:38:42.095Z,9.39
2019-02-16T09:41:21.662Z,9.28
2019-02-16T09:44:03.909Z,9.60
2019-02-16T09:46:40.594Z,9.53
2019-02-16T09:49:10.894Z,9.26
2019-02-16T09:51:44.145Z,9.66
2019-02-16T09:54:20.616Z,10.09
2019-02-16T09:57:07.084Z,10.43
2019-02-16T09:59:37.418Z,10.34
2019-02-16T10:02:10.435Z,10.08
2019-02-16T10:04:44.648Z,10.66
2019-02-16T10:07:30.568Z,10.23
2019-02-16T10:10:07.317Z,10.62
2019-02-16T10:12:37.621Z,10.47
2019-02-16T10:15:19.339Z,10.56
2019-02-16T10:17:52.647Z,10.84
2019-02-16T10:20:28.989Z,10.68
2019-02-16T10:23:01.991Z,11.10
2019-02-16T10:25:32.294Z,10.92
2019-02-16T10:28:05.617Z,11.15
2019-02-16T10:30:44.927Z,10.71
2019-02-16T10:33:18.636Z,10.05
2019-02-16T10:35:51.685Z,10.17
2019-02-16T10:38:31.259Z,10.52
2019-02-16T10:41:01.678Z,10.36
2019-02-16T10:43:44.188Z,11.18
2019-02-16T10:46:23.454Z,11.08
2019-02-16T10:48:53.825Z,11.15
2019-02-16T10:51:40.426Z,11.05
2019-02-16T10:54:10.896Z,11.16
2019-02-16T10:56:44.122Z,11.34
2019-02-16T10:59:14.418Z,11.13
2019-02-16T11:01:44.873Z,10.93
2019-02-16T11:04:15.205Z,10.96
2019-02-16T11:06:48.470Z,10.93
2019-02-16T11:09:19.253Z,10.86
2019-02-16T11:11:54.994Z,11.45
2019-02-16T11:14:24.973Z,11.13
2019-02-16T11:16:55.258Z,11.62
2019-02-16T11:19:41.992Z,11.84
2019-02-16T11:22:21.476Z,11.90
2019-02-16T11:24:51.948Z,11.27
2019-02-16T11:27:25.216Z,11.77
2019-02-16T11:29:55.524Z,11.15
2019-02-16T11:32:31.714Z,11.25
2019-02-16T11:35:05.035Z,11.33
2019-02-16T11:37:35.324Z,11.85
2019-02-16T11:40:06.470Z,11.92
2019-02-16T11:42:36.799Z,12.29
2019-02-16T11:45:09.401Z,13.05
2019-02-16T11:47:45.928Z,12.45
2019-02-16T11:50:16.220Z,12.81
2019-02-16T11:52:49.289Z,13.14
2019-02-16T11:55:36.182Z,13.42
2019-02-16T11:58:09.554Z,13.56
2019-02-16T12:00:55.003Z,12.56
2019-02-16T12:03:25.297Z,12.80
2019-02-16T12:06:01.936Z,13.32
2019-02-16T12:08:35.226Z,12.88
2019-02-16T12:11:11.766Z,13.27
2019-02-16T12:13:42.055Z,13.24
2019-02-16T12:16:15.313Z,12.45
2019-02-16T12:18:49.925Z,12.52
2019-02-16T12:21:36.792Z,12.05
2019-02-16T12:24:16.153Z,12.02
2019-02-16T12:26:46.458Z,12.47
2019-02-16T12:29:16.751Z,13.08
2019-02-16T12:32:04.070Z,13.13
2019-02-16T12:34:34.352Z,12.85
2019-02-16T12:37:13.914Z,12.36
2019-02-16T12:39:44.221Z,12.39
2019-02-16T12:42:30.511Z,11.62
2019-02-16T12:45:03.755Z,11.74
2019-02-16T12:47:36.963Z,12.04
2019-02-16T12:50:08.075Z,11.78
2019-02-16T12:52:38.371Z,11.70
2019-02-16T12:55:14.610Z,11.90
2019-02-16T12:57:47.595Z,11.75
2019-02-16T13:00:17.933Z,12.01
2019-02-16T13:03:00.194Z,12.22
2019-02-16T13:05:45.939Z,12.04
2019-02-16T13:08:18.976Z,12.45
2019-02-16T13:11:05.956Z,12.17
2019-02-16T13:13:48.287Z,12.16
2019-02-16T13:16:21.643Z,12.02
2019-02-16T13:18:51.969Z,12.14
2019-02-16T13:21:22.283Z,12.27
2019-02-16T13:24:01.610Z,12.43
2019-02-16T13:26:34.617Z,12.58
2019-02-16T13:29:07.986Z,12.40
2019-02-16T13:31:44.424Z,12.55
2019-02-16T13:34:17.901Z,12.22
2019-02-16T13:37:04.926Z,12.21
2019-02-16T13:39:44.461Z,12.19
2019-02-16T13:42:27.063Z,12.39
2019-02-16T13:44:57.712Z,12.39
2019-02-16T13:47:28.022Z,12.50
2019-02-16T13:49:58.323Z,12.39
2019-02-16T13:52:29.230Z,12.22
2019-02-16T13:54:59.557Z,12.19
2019-02-16T13:57:32.814Z,11.80
2019-02-16T14:00:04.356Z,11.61
2019-02-16T14:02:37.401Z,11.93
2019-02-16T14:05:11.119Z,12.35
2019-02-16T14:07:56.677Z,12.13
2019-02-16T14:10:37.195Z,12.14
2019-02-16T14:13:13.483Z,12.06
2019-02-16T14:15:49.913Z,12.20
2019-02-16T14:18:18.645Z,12.27
2019-02-16T14:20:47.423Z,12.06
2019-02-16T14:23:16.300Z,11.95
2019-02-16T14:25:45.896Z,11.92
2019-02-16T14:28:14.787Z,11.79
2019-02-16T14:30:43.664Z,11.64
2019-02-16T14:33:12.395Z,11.62
2019-02-16T14:35:41.129Z,11.48
2019-02-16T14:38:21.102Z,11.31
2019-02-16T14:40:49.830Z,11.19
2019-02-16T14:43:18.603Z,11.18
2019-02-16T14:45:47.335Z,11.13
2019-02-16T14:48:16.067Z,11.41
2019-02-16T14:50:44.792Z,11.34
2019-02-16T14:53:13.944Z,11.50
2019-02-16T14:55:51.615Z,11.59
2019-02-16T14:58:13.132Z,11.61
2019-02-16T15:00:42.031Z,11.41
2019-02-16T15:03:10.771Z,11.39
2019-02-16T15:05:39.496Z,11.11
2019-02-16T15:08:08.395Z,10.81
2019-02-16T15:10:37.124Z,10.72
2019-02-16T15:13:05.852Z,10.49
2019-02-16T15:15:34.640Z,10.79
2019-02-16T15:18:03.882Z,10.52
2019-02-16T15:20:32.671Z,10.28
2019-02-16T15:23:01.626Z,10.10
2019-02-16T15:25:30.361Z,9.91
2019-02-16T15:27:59.099Z,9.62
2019-02-16T15:30:28.212Z,9.35
2019-02-16T15:32:56.955Z,9.29
2019-02-16T15:35:27.530Z,9.15
2019-02-16T15:37:56.494Z,8.97
2019-02-16T15:40:25.218Z,8.70
2019-02-16T15:42:53.940Z,8.45
2019-02-16T15:45:22.695Z,8.19
2019-02-16T15:47:51.423Z,8.02
2019-02-16T15:50:20.149Z,7.68
2019-02-16T15:52:49.108Z,7.40
2019-02-16T15:55:17.870Z,7.24
2019-02-16T15:57:46.601Z,7.05
2019-02-16T16:00:20.000Z,7.04
2019-02-16T16:02:48.744Z,6.95
2019-02-16T16:05:17.463Z,6.80
2019-02-16T16:07:48.186Z,6.61
2019-02-16T16:10:18.474Z,6.43
2019-02-16T16:12:50.130Z,6.24
2019-02-16T16:15:23.229Z,6.17
2019-02-16T16:17:59.559Z,6.13
2019-02-16T16:20:47.196Z,6.00
2019-02-16T16:23:33.691Z,5.92
2019-02-16T16:26:04.019Z,5.98
2019-02-16T16:28:34.924Z,5.80
2019-02-16T16:31:21.209Z,5.58
2019-02-16T16:34:00.481Z,5.45
2019-02-16T16:36:40.489Z,5.36
2019-02-16T16:39:10.758Z,5.15
2019-02-16T16:41:44.009Z,4.99
2019-02-16T16:44:14.697Z,4.89
2019-02-16T16:46:45.027Z,4.77
2019-02-16T16:49:46.187Z,4.68
2019-02-16T16:52:41.936Z,4.57
2019-02-16T16:55:12.315Z,4.42
2019-02-16T16:57:42.622Z,4.31
2019-02-16T17:00:25.418Z,4.25
2019-02-16T17:03:11.840Z,4.32
2019-02-16T17:05:45.359Z,4.39
2019-02-16T17:08:32.069Z,4.39
2019-02-16T17:11:02.433Z,4.37
2019-02-16T17:13:35.469Z,4.41
2019-02-16T17:16:05.780Z,4.35
2019-02-16T17:18:52.700Z,4.29
2019-02-16T17:21:35.008Z,4.24
2019-02-16T17:24:05.415Z,4.21
2019-02-16T17:26:38.036Z,4.20
2019-02-16T17:29:17.753Z,4.09
2019-02-16T17:32:04.259Z,4.00
2019-02-16T17:34:46.768Z,3.95
2019-02-16T17:37:20.069Z,4.09
2019-02-16T17:39:50.372Z,4.32
2019-02-16T17:42:25.286Z,4.33
2019-02-16T17:45:01.747Z,4.10
2019-02-16T17:47:47.777Z,3.88
2019-02-16T17:50:26.666Z,3.69
2019-02-16T17:53:02.978Z,3.58
2019-02-16T17:55:42.421Z,3.59
2019-02-16T17:58:12.830Z,3.72
2019-02-16T18:00:43.139Z,3.71
2019-02-16T18:03:13.447Z,3.65
2019-02-16T18:05:55.742Z,3.60
2019-02-16T18:08:26.037Z,3.54
2019-02-16T18:11:08.781Z,3.44
2019-02-16T18:13:39.084Z,3.54
2019-02-16T18:16:15.267Z,3.50
2019-02-16T18:18:45.718Z,3.52
2019-02-16T18:21:19.241Z,3.51
2019-02-16T18:23:49.534Z,3.59
2019-02-16T18:26:19.884Z,3.62
2019-02-16T18:28:57.557Z,3.52
2019-02-16T18:31:28.058Z,3.49
2019-02-16T18:34:15.614Z,3.60
2019-02-16T18:36:52.250Z,3.51
2019-02-16T18:39:39.227Z,3.50
2019-02-16T18:42:25.749Z,3.49
2019-02-16T18:45:02.797Z,3.46
2019-02-16T18:47:42.441Z,3.45
2019-02-16T18:50:16.218Z,3.37
2019-02-16T18:52:46.573Z,3.24
2019-02-16T18:55:16.878Z,3.15
2019-02-16T18:57:50.574Z,3.08
2019-02-16T19:00:20.887Z,3.10
2019-02-16T19:02:54.449Z,3.18
2019-02-16T19:05:41.309Z,3.16
2019-02-16T19:08:21.382Z,3.20
2019-02-16T19:11:14.220Z,3.06
2019-02-16T19:13:47.068Z,2.92
2019-02-16T19:16:37.761Z,2.85
2019-02-16T19:19:11.066Z,2.78
2019-02-16T19:21:48.883Z,2.78
2019-02-16T19:24:31.244Z,2.70
2019-02-16T19:27:01.664Z,2.66
2019-02-16T19:29:48.073Z,2.66
2019-02-16T19:32:29.299Z,2.58
2019-02-16T19:35:02.494Z,2.54
2019-02-16T19:37:35.937Z,2.52
2019-02-16T19:40:12.856Z,2.54
2019-02-16T19:42:49.842Z,2.49
2019-02-16T19:45:23.264Z,2.64
2019-02-16T19:47:53.983Z,2.75
2019-02-16T19:50:26.099Z,2.82
2019-02-16T19:52:56.501Z,2.70
2019-02-16T19:55:30.333Z,2.64
2019-02-16T19:58:06.643Z,2.60
2019-02-16T20:00:53.946Z,2.47
2019-02-16T20:03:29.853Z,2.41
2019-02-16T20:06:04.518Z,2.32
2019-02-16T20:08:43.348Z,2.30
2019-02-16T20:11:20.000Z,2.19
2019-02-16T20:13:53.282Z,2.08
2019-02-16T20:16:41.969Z,1.94
2019-02-16T20:19:12.269Z,1.86
2019-02-16T20:21:42.604Z,1.94
2019-02-16T20:24:28.156Z,1.98
2019-02-16T20:27:14.809Z,1.89
2019-02-16T20:29:45.150Z,1.79
2019-02-16T20:32:31.568Z,1.66
2019-02-16T20:35:04.946Z,1.67
2019-02-16T20:37:39.497Z,1.67
2019-02-16T20:40:15.723Z,1.62
2019-02-16T20:42:49.722Z,1.60
2019-02-16T20:45:20.029Z,1.61
2019-02-16T20:47:50.494Z,1.57
2019-02-16T20:50:20.803Z,1.49
2019-02-16T20:53:03.499Z,1.45
2019-02-16T20:55:39.961Z,1.42
2019-02-16T20:58:13.242Z,1.37
2019-02-16T21:00:43.539Z,1.32
2019-02-16T21:03:19.907Z,1.39
2019-02-16T21:06:06.395Z,1.34
2019-02-16T21:08:40.047Z,1.32
2019-02-16T21:11:16.528Z,1.27
2019-02-16T21:13:47.068Z,1.29
2019-02-16T21:16:33.718Z,1.35
2019-02-16T21:19:04.500Z,1.42
2019-02-16T21:21:53.211Z,1.30
2019-02-16T21:24:23.671Z,1.23
2019-02-16T21:26:57.038Z,1.19
2019-02-16T21:29:42.524Z,1.09
2019-02-16T21:32:12.834Z,0.97
2019-02-16T21:34:59.598Z,0.82
2019-02-16T21:37:36.310Z,0.79
2019-02-16T21:40:07.452Z,0.79
2019-02-16T21:42:37.747Z,0.50
2019-02-16T21:45:10.967Z,0.34
2019-02-16T21:47:50.624Z,0.14
2019-02-16T21:50:23.938Z,-0.05
2019-02-16T21:53:09.757Z,-0.32
2019-02-16T21:55:56.268Z,-0.39
2019-02-16T21:58:29.558Z,-0.43
2019-02-16T22:01:02.707Z,-0.50
2019-02-16T22:03:33.006Z,-0.57
2019-02-16T22:06:19.551Z,-0.59
2019-02-16T22:08:52.634Z,-0.73
2019-02-16T22:11:22.939Z,-0.85
2019-02-16T22:13:51.835Z,-0.91
2019-02-16T22:16:20.562Z,-0.94
2019-02-16T22:18:49.291Z,-0.90
2019-02-16T22:21:24.426Z,-0.93
2019-02-16T22:23:53.162Z,-0.89
2019-02-16T22:26:21.900Z,-0.86
2019-02-16T22:28:50.799Z,-0.70
2019-02-16T22:31:19.528Z,-0.61
2019-02-16T22:33:48.260Z,-0.60
2019-02-16T22:36:17.060Z,-0.65
2019-02-16T22:38:45.853Z,-0.62
2019-02-16T22:41:14.785Z,-0.66
2019-02-16T22:43:43.643Z,-0.70
2019-02-16T22:46:13.389Z,-0.72
2019-02-16T22:48:42.150Z,-0.81
2019-02-16T22:51:10.940Z,-0.80
2019-02-16T22:53:39.667Z,-0.79
2019-02-16T22:56:08.406Z,-0.77
2019-02-16T22:58:37.201Z,-0.81
2019-02-16T23:01:06.228Z,-0.88
2019-02-16T23:03:34.958Z,-0.90
2019-02-16T23:06:03.754Z,-0.93
2019-02-16T23:08:32.486Z,-0.81
2019-02-16T23:11:01.217Z,-0.63
2019-02-16T23:13:30.520Z,-0.58
2019-02-16T23:15:59.253Z,-0.51
2019-02-16T23:18:27.978Z,-0.75
2019-02-16T23:20:56.754Z,-0.83
2019-02-16T23:23:25.483Z,-1.02
2019-02-16T23:25:54.214Z,-0.97
2019-02-16T23:28:23.211Z,-0.97
2019-02-16T23:30:51.946Z,-0.99
2019-02-16T23:33:20.691Z,-0.99
2019-02-16T23:35:49.546Z,-1.03
2019-02-16T23:38:18.280Z,-1.10
2019-02-16T23:40:47.159Z,-1.11
2019-02-16T23:43:16.286Z,-1.14
2019-02-16T23:45:45.017Z,-1.12
2019-02-16T23:48:13.744Z,-1.16
2019-02-16T23:50:42.623Z,-1.16
2019-02-16T23:53:11.353Z,-1.21
2019-02-16T23:55:40.078Z,-1.22
2019-02-16T23:58:08.964Z,-1.18
